sensor_id;sensor_type;location;lat;lon;timestamp;pressure;altitude;pressure_sealevel;temperature
25985;BMP280;66753;53.848;10.658;2023-01-31T00:04:21;101291.09;;;4.84
25985;BMP280;66753;53.848;10.658;2023-01-31T00:09:22;101304.22;;;4.84
25985;BMP280;66753;53.848;10.658;2023-01-31T00:14:22;101292.94;;;4.83
25985;BMP280;66753;53.848;10.658;2023-01-31T00:19:25;101316.84;;;4.82
25985;BMP280;66753;53.848;10.658;2023-01-31T00:24:25;101299.53;;;4.81
25985;BMP280;66753;53.848;10.658;2023-01-31T00:29:25;101297.97;;;4.80
25985;BMP280;66753;53.848;10.658;2023-01-31T00:34:27;101313.47;;;4.76
25985;BMP280;66753;53.848;10.658;2023-01-31T00:39:27;101318.75;;;4.71
25985;BMP280;66753;53.848;10.658;2023-01-31T00:44:28;101322.72;;;4.69
25985;BMP280;66753;53.848;10.658;2023-01-31T00:49:28;101343.25;;;4.67
25985;BMP280;66753;53.848;10.658;2023-01-31T00:54:28;101349.53;;;4.66
25985;BMP280;66753;53.848;10.658;2023-01-31T00:59:29;101365.03;;;4.67
25985;BMP280;66753;53.848;10.658;2023-01-31T01:04:29;101362.06;;;4.74
25985;BMP280;66753;53.848;10.658;2023-01-31T01:09:31;101368.34;;;4.78
25985;BMP280;66753;53.848;10.658;2023-01-31T01:14:31;101359.66;;;4.82
25985;BMP280;66753;53.848;10.658;2023-01-31T01:19:32;101354.66;;;4.81
25985;BMP280;66753;53.848;10.658;2023-01-31T01:24:32;101355.69;;;4.85
25985;BMP280;66753;53.848;10.658;2023-01-31T01:29:33;101362.22;;;4.87
25985;BMP280;66753;53.848;10.658;2023-01-31T01:34:34;101367.72;;;4.91
25985;BMP280;66753;53.848;10.658;2023-01-31T01:39:35;101394.19;;;4.94
25985;BMP280;66753;53.848;10.658;2023-01-31T01:49:56;101399.84;;;5.11
25985;BMP280;66753;53.848;10.658;2023-01-31T01:55:07;101397.22;;;5.11
25985;BMP280;66753;53.848;10.658;2023-01-31T02:00:21;101387.25;;;5.08
25985;BMP280;66753;53.848;10.658;2023-01-31T02:05:30;101386.00;;;5.01
25985;BMP280;66753;53.848;10.658;2023-01-31T02:10:46;101383.16;;;4.97
25985;BMP280;66753;53.848;10.658;2023-01-31T02:15:47;101383.94;;;4.98
25985;BMP280;66753;53.848;10.658;2023-01-31T02:37:19;101414.28;;;4.80
25985;BMP280;66753;53.848;10.658;2023-01-31T02:53:24;101442.13;;;4.81
25985;BMP280;66753;53.848;10.658;2023-01-31T02:58:30;101452.84;;;4.85
25985;BMP280;66753;53.848;10.658;2023-01-31T03:03:34;101455.25;;;4.86
25985;BMP280;66753;53.848;10.658;2023-01-31T03:08:43;101450.72;;;4.87
25985;BMP280;66753;53.848;10.658;2023-01-31T03:13:51;101448.94;;;4.82
25985;BMP280;66753;53.848;10.658;2023-01-31T03:24:04;101442.16;;;4.71
25985;BMP280;66753;53.848;10.658;2023-01-31T03:29:07;101429.31;;;4.70
25985;BMP280;66753;53.848;10.658;2023-01-31T03:34:11;101434.88;;;4.68
25985;BMP280;66753;53.848;10.658;2023-01-31T03:44:25;101432.00;;;4.60
25985;BMP280;66753;53.848;10.658;2023-01-31T03:49:28;101417.84;;;4.56
25985;BMP280;66753;53.848;10.658;2023-01-31T03:54:35;101431.75;;;4.56
25985;BMP280;66753;53.848;10.658;2023-01-31T03:59:38;101430.97;;;4.56
25985;BMP280;66753;53.848;10.658;2023-01-31T04:04:44;101439.88;;;4.60
25985;BMP280;66753;53.848;10.658;2023-01-31T04:09:47;101442.22;;;4.61
25985;BMP280;66753;53.848;10.658;2023-01-31T04:14:47;101454.59;;;4.61
25985;BMP280;66753;53.848;10.658;2023-01-31T04:19:48;101438.56;;;4.67
25985;BMP280;66753;53.848;10.658;2023-01-31T04:24:48;101435.56;;;4.74
25985;BMP280;66753;53.848;10.658;2023-01-31T04:29:49;101431.88;;;4.80
25985;BMP280;66753;53.848;10.658;2023-01-31T04:34:49;101436.06;;;4.81
25985;BMP280;66753;53.848;10.658;2023-01-31T04:39:50;101430.81;;;4.81
25985;BMP280;66753;53.848;10.658;2023-01-31T04:44:50;101431.13;;;4.74
25985;BMP280;66753;53.848;10.658;2023-01-31T04:49:51;101444.53;;;4.73
25985;BMP280;66753;53.848;10.658;2023-01-31T04:54:51;101443.97;;;4.76
25985;BMP280;66753;53.848;10.658;2023-01-31T04:59:51;101455.00;;;4.83
25985;BMP280;66753;53.848;10.658;2023-01-31T05:04:52;101458.59;;;4.87
25985;BMP280;66753;53.848;10.658;2023-01-31T05:09:52;101464.63;;;4.92
25985;BMP280;66753;53.848;10.658;2023-01-31T05:14:53;101459.06;;;4.99
25985;BMP280;66753;53.848;10.658;2023-01-31T05:19:56;101458.53;;;5.02
25985;BMP280;66753;53.848;10.658;2023-01-31T05:24:57;101455.31;;;5.05
25985;BMP280;66753;53.848;10.658;2023-01-31T05:29:59;101456.84;;;5.11
25985;BMP280;66753;53.848;10.658;2023-01-31T05:34:59;101450.50;;;5.17
25985;BMP280;66753;53.848;10.658;2023-01-31T05:40:00;101446.56;;;5.19
25985;BMP280;66753;53.848;10.658;2023-01-31T05:45:00;101445.47;;;5.20
25985;BMP280;66753;53.848;10.658;2023-01-31T05:50:01;101447.81;;;5.22
25985;BMP280;66753;53.848;10.658;2023-01-31T05:55:01;101439.44;;;5.20
25985;BMP280;66753;53.848;10.658;2023-01-31T06:00:02;101437.66;;;5.15
25985;BMP280;66753;53.848;10.658;2023-01-31T06:05:03;101424.78;;;5.14
25985;BMP280;66753;53.848;10.658;2023-01-31T06:10:05;101432.66;;;5.14
25985;BMP280;66753;53.848;10.658;2023-01-31T06:15:06;101430.03;;;5.14
25985;BMP280;66753;53.848;10.658;2023-01-31T06:20:08;101426.59;;;5.18
25985;BMP280;66753;53.848;10.658;2023-01-31T06:25:08;101415.25;;;5.23
25985;BMP280;66753;53.848;10.658;2023-01-31T06:30:09;101420.16;;;5.29
25985;BMP280;66753;53.848;10.658;2023-01-31T06:35:10;101436.69;;;5.35
25985;BMP280;66753;53.848;10.658;2023-01-31T06:40:11;101433.72;;;5.41
25985;BMP280;66753;53.848;10.658;2023-01-31T06:45:11;101432.09;;;5.45
25985;BMP280;66753;53.848;10.658;2023-01-31T06:50:12;101418.41;;;5.48
25985;BMP280;66753;53.848;10.658;2023-01-31T06:55:13;101413.09;;;5.53
25985;BMP280;66753;53.848;10.658;2023-01-31T07:00:14;101413.31;;;5.57
25985;BMP280;66753;53.848;10.658;2023-01-31T07:05:15;101410.13;;;5.60
25985;BMP280;66753;53.848;10.658;2023-01-31T07:10:16;101405.91;;;5.64
25985;BMP280;66753;53.848;10.658;2023-01-31T07:15:17;101393.44;;;5.69
25985;BMP280;66753;53.848;10.658;2023-01-31T07:20:17;101381.06;;;5.75
25985;BMP280;66753;53.848;10.658;2023-01-31T07:25:18;101374.94;;;5.80
25985;BMP280;66753;53.848;10.658;2023-01-31T07:30:18;101374.59;;;5.86
25985;BMP280;66753;53.848;10.658;2023-01-31T07:35:19;101361.38;;;5.91
25985;BMP280;66753;53.848;10.658;2023-01-31T07:40:20;101370.75;;;5.97
25985;BMP280;66753;53.848;10.658;2023-01-31T07:45:21;101366.50;;;6.01
25985;BMP280;66753;53.848;10.658;2023-01-31T07:50:21;101350.94;;;6.05
25985;BMP280;66753;53.848;10.658;2023-01-31T07:55:22;101337.50;;;6.06
25985;BMP280;66753;53.848;10.658;2023-01-31T08:00:22;101331.06;;;6.12
25985;BMP280;66753;53.848;10.658;2023-01-31T08:05:44;101324.69;;;6.18
25985;BMP280;66753;53.848;10.658;2023-01-31T08:10:45;101314.94;;;6.19
25985;BMP280;66753;53.848;10.658;2023-01-31T08:15:50;101309.94;;;6.17
25985;BMP280;66753;53.848;10.658;2023-01-31T08:20:51;101299.13;;;6.19
25985;BMP280;66753;53.848;10.658;2023-01-31T08:25:51;101295.94;;;6.22
25985;BMP280;66753;53.848;10.658;2023-01-31T08:30:52;101284.56;;;6.26
25985;BMP280;66753;53.848;10.658;2023-01-31T08:35:55;101269.75;;;6.30
25985;BMP280;66753;53.848;10.658;2023-01-31T08:40:57;101251.25;;;6.35
25985;BMP280;66753;53.848;10.658;2023-01-31T08:45:58;101258.06;;;6.36
25985;BMP280;66753;53.848;10.658;2023-01-31T08:51:05;101264.13;;;6.37
25985;BMP280;66753;53.848;10.658;2023-01-31T08:56:07;101251.53;;;6.34
25985;BMP280;66753;53.848;10.658;2023-01-31T09:01:13;101247.72;;;6.40
25985;BMP280;66753;53.848;10.658;2023-01-31T09:06:17;101231.13;;;6.39
25985;BMP280;66753;53.848;10.658;2023-01-31T09:11:18;101219.78;;;6.57
25985;BMP280;66753;53.848;10.658;2023-01-31T09:16:19;101204.09;;;6.66
25985;BMP280;66753;53.848;10.658;2023-01-31T09:21:20;101193.44;;;6.71
25985;BMP280;66753;53.848;10.658;2023-01-31T09:26:21;101181.06;;;6.71
25985;BMP280;66753;53.848;10.658;2023-01-31T09:31:21;101165.53;;;6.70
25985;BMP280;66753;53.848;10.658;2023-01-31T09:36:23;101152.16;;;6.66
25985;BMP280;66753;53.848;10.658;2023-01-31T09:41:49;101155.31;;;6.68
25985;BMP280;66753;53.848;10.658;2023-01-31T09:47:20;101146.91;;;6.66
25985;BMP280;66753;53.848;10.658;2023-01-31T09:52:23;101150.44;;;6.62
25985;BMP280;66753;53.848;10.658;2023-01-31T10:02:55;101129.94;;;6.59
25985;BMP280;66753;53.848;10.658;2023-01-31T10:13:27;101122.53;;;6.74
25985;BMP280;66753;53.848;10.658;2023-01-31T10:18:36;101105.97;;;6.74
25985;BMP280;66753;53.848;10.658;2023-01-31T10:23:45;101091.78;;;6.70
25985;BMP280;66753;53.848;10.658;2023-01-31T10:34:09;101069.22;;;6.77
25985;BMP280;66753;53.848;10.658;2023-01-31T10:44:26;101050.09;;;6.85
25985;BMP280;66753;53.848;10.658;2023-01-31T10:49:32;101047.00;;;6.83
25985;BMP280;66753;53.848;10.658;2023-01-31T11:00:01;101011.53;;;6.89
25985;BMP280;66753;53.848;10.658;2023-01-31T11:05:02;101003.03;;;6.92
25985;BMP280;66753;53.848;10.658;2023-01-31T11:10:23;100999.63;;;6.92
25985;BMP280;66753;53.848;10.658;2023-01-31T11:15:26;101007.41;;;6.97
25985;BMP280;66753;53.848;10.658;2023-01-31T11:20:34;101013.94;;;6.99
25985;BMP280;66753;53.848;10.658;2023-01-31T11:25:36;101003.88;;;7.01
25985;BMP280;66753;53.848;10.658;2023-01-31T11:30:38;100996.66;;;7.15
25985;BMP280;66753;53.848;10.658;2023-01-31T11:35:50;100994.53;;;7.17
25985;BMP280;66753;53.848;10.658;2023-01-31T11:40:51;100987.91;;;7.28
25985;BMP280;66753;53.848;10.658;2023-01-31T11:45:59;100972.59;;;7.30
25985;BMP280;66753;53.848;10.658;2023-01-31T11:51:01;100964.69;;;7.30
25985;BMP280;66753;53.848;10.658;2023-01-31T11:56:17;100958.31;;;7.31
25985;BMP280;66753;53.848;10.658;2023-01-31T12:01:21;100961.91;;;7.35
25985;BMP280;66753;53.848;10.658;2023-01-31T12:11:35;100935.56;;;7.44
25985;BMP280;66753;53.848;10.658;2023-01-31T12:16:36;100933.44;;;7.46
25985;BMP280;66753;53.848;10.658;2023-01-31T12:54:26;100872.78;;;7.63
25985;BMP280;66753;53.848;10.658;2023-01-31T12:59:55;100875.75;;;7.70
25985;BMP280;66753;53.848;10.658;2023-01-31T13:05:10;100885.88;;;7.76
25985;BMP280;66753;53.848;10.658;2023-01-31T13:20:41;100876.28;;;7.97
25985;BMP280;66753;53.848;10.658;2023-01-31T13:25:56;100867.44;;;8.10
25985;BMP280;66753;53.848;10.658;2023-01-31T13:31:01;100863.69;;;8.20
25985;BMP280;66753;53.848;10.658;2023-01-31T13:41:32;100852.03;;;8.29
25985;BMP280;66753;53.848;10.658;2023-01-31T13:46:36;100846.00;;;8.29
25985;BMP280;66753;53.848;10.658;2023-01-31T13:51:44;100839.16;;;8.36
25985;BMP280;66753;53.848;10.658;2023-01-31T13:56:51;100827.31;;;8.42
25985;BMP280;66753;53.848;10.658;2023-01-31T14:01:54;100807.88;;;8.55
25985;BMP280;66753;53.848;10.658;2023-01-31T14:22:35;100807.78;;;8.72
25985;BMP280;66753;53.848;10.658;2023-01-31T14:27:42;100782.16;;;8.73
25985;BMP280;66753;53.848;10.658;2023-01-31T14:37:59;100789.13;;;8.77
25985;BMP280;66753;53.848;10.658;2023-01-31T14:43:12;100792.38;;;8.83
25985;BMP280;66753;53.848;10.658;2023-01-31T14:53:38;100762.38;;;8.88
25985;BMP280;66753;53.848;10.658;2023-01-31T14:58:43;100748.03;;;8.88
25985;BMP280;66753;53.848;10.658;2023-01-31T15:03:55;100748.84;;;8.89
25985;BMP280;66753;53.848;10.658;2023-01-31T15:09:34;100754.75;;;8.86
25985;BMP280;66753;53.848;10.658;2023-01-31T15:14:42;100781.53;;;8.76
25985;BMP280;66753;53.848;10.658;2023-01-31T15:19:56;100795.88;;;8.66
25985;BMP280;66753;53.848;10.658;2023-01-31T15:25:01;100792.31;;;8.62
25985;BMP280;66753;53.848;10.658;2023-01-31T15:30:25;100809.09;;;8.58
25985;BMP280;66753;53.848;10.658;2023-01-31T15:35:34;100780.56;;;8.51
25985;BMP280;66753;53.848;10.658;2023-01-31T15:40:36;100778.81;;;8.47
25985;BMP280;66753;53.848;10.658;2023-01-31T15:45:37;100773.72;;;8.42
25985;BMP280;66753;53.848;10.658;2023-01-31T15:50:56;100782.13;;;8.35
25985;BMP280;66753;53.848;10.658;2023-01-31T15:55:59;100770.78;;;8.35
25985;BMP280;66753;53.848;10.658;2023-01-31T16:01:02;100783.06;;;8.39
25985;BMP280;66753;53.848;10.658;2023-01-31T16:06:21;100782.00;;;8.40
25985;BMP280;66753;53.848;10.658;2023-01-31T16:11:22;100766.56;;;8.42
25985;BMP280;66753;53.848;10.658;2023-01-31T16:16:25;100760.66;;;8.45
25985;BMP280;66753;53.848;10.658;2023-01-31T16:26:32;100729.44;;;8.47
25985;BMP280;66753;53.848;10.658;2023-01-31T16:31:42;100756.94;;;8.46
25985;BMP280;66753;53.848;10.658;2023-01-31T16:41:51;100741.72;;;8.43
25985;BMP280;66753;53.848;10.658;2023-01-31T16:46:53;100743.44;;;8.39
25985;BMP280;66753;53.848;10.658;2023-01-31T16:52:14;100747.03;;;8.35
25985;BMP280;66753;53.848;10.658;2023-01-31T17:02:41;100703.31;;;8.08
25985;BMP280;66753;53.848;10.658;2023-01-31T17:07:45;100687.81;;;7.98
25985;BMP280;66753;53.848;10.658;2023-01-31T17:12:48;100694.03;;;7.85
25985;BMP280;66753;53.848;10.658;2023-01-31T17:17:50;100681.19;;;7.75
25985;BMP280;66753;53.848;10.658;2023-01-31T17:22:50;100714.41;;;7.68
25985;BMP280;66753;53.848;10.658;2023-01-31T17:27:51;100708.03;;;7.60
25985;BMP280;66753;53.848;10.658;2023-01-31T17:32:51;100737.34;;;7.59
25985;BMP280;66753;53.848;10.658;2023-01-31T17:37:52;100755.81;;;7.59
25985;BMP280;66753;53.848;10.658;2023-01-31T17:42:57;100757.53;;;7.63
25985;BMP280;66753;53.848;10.658;2023-01-31T17:47:58;100765.44;;;7.63
25985;BMP280;66753;53.848;10.658;2023-01-31T17:52:58;100772.88;;;7.61
25985;BMP280;66753;53.848;10.658;2023-01-31T17:58:02;100781.41;;;7.58
25985;BMP280;66753;53.848;10.658;2023-01-31T18:03:05;100758.91;;;7.52
25985;BMP280;66753;53.848;10.658;2023-01-31T18:08:06;100781.41;;;7.41
25985;BMP280;66753;53.848;10.658;2023-01-31T18:13:07;100747.72;;;7.38
25985;BMP280;66753;53.848;10.658;2023-01-31T18:18:07;100760.44;;;7.36
25985;BMP280;66753;53.848;10.658;2023-01-31T18:23:08;100746.78;;;7.34
25985;BMP280;66753;53.848;10.658;2023-01-31T18:28:08;100752.97;;;7.30
25985;BMP280;66753;53.848;10.658;2023-01-31T18:33:08;100757.19;;;7.31
25985;BMP280;66753;53.848;10.658;2023-01-31T18:38:09;100767.13;;;7.34
25985;BMP280;66753;53.848;10.658;2023-01-31T18:43:11;100762.63;;;7.34
25985;BMP280;66753;53.848;10.658;2023-01-31T18:48:12;100741.06;;;7.32
25985;BMP280;66753;53.848;10.658;2023-01-31T18:53:12;100736.09;;;7.31
25985;BMP280;66753;53.848;10.658;2023-01-31T18:58:13;100743.34;;;7.25
25985;BMP280;66753;53.848;10.658;2023-01-31T19:03:15;100761.31;;;7.23
25985;BMP280;66753;53.848;10.658;2023-01-31T19:08:15;100766.94;;;7.22
25985;BMP280;66753;53.848;10.658;2023-01-31T19:13:16;100765.69;;;7.19
25985;BMP280;66753;53.848;10.658;2023-01-31T19:18:16;100765.34;;;7.12
25985;BMP280;66753;53.848;10.658;2023-01-31T19:23:17;100762.28;;;7.10
25985;BMP280;66753;53.848;10.658;2023-01-31T19:28:17;100782.25;;;7.11
25985;BMP280;66753;53.848;10.658;2023-01-31T19:33:21;100799.94;;;7.11
25985;BMP280;66753;53.848;10.658;2023-01-31T19:38:22;100790.00;;;7.08
25985;BMP280;66753;53.848;10.658;2023-01-31T19:43:23;100782.38;;;7.06
25985;BMP280;66753;53.848;10.658;2023-01-31T19:48:23;100777.59;;;7.08
25985;BMP280;66753;53.848;10.658;2023-01-31T19:53:24;100760.69;;;7.09
25985;BMP280;66753;53.848;10.658;2023-01-31T19:58:24;100773.25;;;7.04
25985;BMP280;66753;53.848;10.658;2023-01-31T20:03:30;100770.91;;;7.02
25985;BMP280;66753;53.848;10.658;2023-01-31T20:08:30;100750.44;;;6.99
25985;BMP280;66753;53.848;10.658;2023-01-31T20:13:31;100754.16;;;6.98
25985;BMP280;66753;53.848;10.658;2023-01-31T20:18:32;100756.31;;;6.96
25985;BMP280;66753;53.848;10.658;2023-01-31T20:23:33;100778.34;;;7.00
25985;BMP280;66753;53.848;10.658;2023-01-31T20:28:34;100771.22;;;7.01
25985;BMP280;66753;53.848;10.658;2023-01-31T20:33:35;100778.47;;;6.95
25985;BMP280;66753;53.848;10.658;2023-01-31T20:38:36;100781.91;;;6.96
25985;BMP280;66753;53.848;10.658;2023-01-31T20:43:37;100797.03;;;6.90
25985;BMP280;66753;53.848;10.658;2023-01-31T20:48:39;100788.97;;;6.87
25985;BMP280;66753;53.848;10.658;2023-01-31T20:53:40;100787.25;;;6.82
25985;BMP280;66753;53.848;10.658;2023-01-31T20:58:41;100809.06;;;6.74
25985;BMP280;66753;53.848;10.658;2023-01-31T21:03:42;100791.72;;;6.73
25985;BMP280;66753;53.848;10.658;2023-01-31T21:08:42;100780.69;;;6.71
25985;BMP280;66753;53.848;10.658;2023-01-31T21:13:46;100781.28;;;6.68
25985;BMP280;66753;53.848;10.658;2023-01-31T21:18:46;100773.88;;;6.70
25985;BMP280;66753;53.848;10.658;2023-01-31T21:23:47;100772.31;;;6.69
25985;BMP280;66753;53.848;10.658;2023-01-31T21:28:50;100776.22;;;6.72
25985;BMP280;66753;53.848;10.658;2023-01-31T21:33:50;100757.47;;;6.73
25985;BMP280;66753;53.848;10.658;2023-01-31T21:38:51;100767.03;;;6.69
25985;BMP280;66753;53.848;10.658;2023-01-31T21:43:53;100764.56;;;6.64
25985;BMP280;66753;53.848;10.658;2023-01-31T21:48:54;100771.38;;;6.65
25985;BMP280;66753;53.848;10.658;2023-01-31T21:53:54;100781.78;;;6.70
25985;BMP280;66753;53.848;10.658;2023-01-31T21:58:55;100782.28;;;6.72
25985;BMP280;66753;53.848;10.658;2023-01-31T22:03:57;100798.06;;;6.72
25985;BMP280;66753;53.848;10.658;2023-01-31T22:08:59;100781.00;;;6.70
25985;BMP280;66753;53.848;10.658;2023-01-31T22:14:08;100783.44;;;6.66
25985;BMP280;66753;53.848;10.658;2023-01-31T22:19:10;100804.81;;;6.65
25985;BMP280;66753;53.848;10.658;2023-01-31T22:24:11;100789.50;;;6.67
25985;BMP280;66753;53.848;10.658;2023-01-31T22:29:13;100786.56;;;6.68
25985;BMP280;66753;53.848;10.658;2023-01-31T22:34:15;100758.50;;;6.64
25985;BMP280;66753;53.848;10.658;2023-01-31T22:39:15;100771.03;;;6.58
25985;BMP280;66753;53.848;10.658;2023-01-31T22:44:16;100762.19;;;6.54
25985;BMP280;66753;53.848;10.658;2023-01-31T22:49:16;100764.16;;;6.49
25985;BMP280;66753;53.848;10.658;2023-01-31T22:54:17;100772.34;;;6.47
25985;BMP280;66753;53.848;10.658;2023-01-31T22:59:20;100750.84;;;6.45
25985;BMP280;66753;53.848;10.658;2023-01-31T23:04:23;100760.78;;;6.48
25985;BMP280;66753;53.848;10.658;2023-01-31T23:09:24;100754.09;;;6.51
25985;BMP280;66753;53.848;10.658;2023-01-31T23:14:24;100748.41;;;6.57
25985;BMP280;66753;53.848;10.658;2023-01-31T23:19:25;100769.66;;;6.61
25985;BMP280;66753;53.848;10.658;2023-01-31T23:24:25;100774.50;;;6.67
25985;BMP280;66753;53.848;10.658;2023-01-31T23:29:26;100762.75;;;6.73
25985;BMP280;66753;53.848;10.658;2023-01-31T23:34:26;100758.09;;;6.70
25985;BMP280;66753;53.848;10.658;2023-01-31T23:39:29;100778.56;;;6.73
25985;BMP280;66753;53.848;10.658;2023-01-31T23:44:30;100773.28;;;6.73
25985;BMP280;66753;53.848;10.658;2023-01-31T23:49:30;100774.38;;;6.72
25985;BMP280;66753;53.848;10.658;2023-01-31T23:54:31;100767.03;;;6.69
25985;BMP280;66753;53.848;10.658;2023-01-31T23:59:31;100759.13;;;6.69
